Airfield :







YOU CAN JOIN US ON...

 
LOGIN :

Register | Disclaimer

   EN    FR    IT 

 









Legend :    VFR   Marginal VFR   IFR   Intensive IFR   Very Intensive IFR
Visi :
Ceiling :
>= 8 km
>= 3000ft
5 to 8 km
1000 to 3000 ft
1500m to 5 km
500 to 1000 ft
800 to 1500m
200 to 500 ft
< 800m
< 200 ft
Symbols :   Thunderstorms  Fog  Heavy snow  Heavy precipitations  Wind > 20 kt






- Airport Elevation : 232 ft
- IATA code : YQM


CYQM - Greater Moncton International

CURRENT METAR :
  • 131600Z 04010KT 15SM FEW046 17/05 A2985 RMK CU1 CU TR SLP112 DENSITY ALT 600FT

EXPIRED METARs :
  • 131500Z 36012KT 15SM FEW046 FEW260 17/05 A2985 RMK CU1CI1 CU TR SLP110 DENSITY ALT 600FT
  • 131400Z 02012KT 15SM FEW038 FEW100 FEW260 17/06 A2983 RMK CU1AC1CI1 CU TR AC TR SLP105 DENSITY ALT 600FT

TAF TAF CYQM
Valid from the 13 at 12:00 until the 14 at 12:00 UTC


131140Z 1312/1412 35006KT P6SM FEW100
FM131600 03012KT P6SM FEW060
BECMG 1322/1324 07008KT
FM140200 13008KT P6SM FEW040
FM141000 16012KT P6SM FEW080 BKN240 RMK NXT FCST BY 131800Z
CZQM FIR / North America



MET'MAP, your aeronautical weather chart ! - Copyright ORBIFLY December 2007 - Disclaimer

ORBIFLY MET'MAP TEAM :

Programming & Development : Alexandra Zaïnal
Concept & original design : Baudouin d'Aumeries
Assistance for programming : Marc-Olivier Méhu
Technical & hardware support : Manuel Goepfert

Contact : metmap@orbifly.com




SOURCES & CREDITS :

   NOAA